Terminal Aerodrome Forecast
Issued by NWS Sterling, VA

Home | Current Version | Previous Version | Text Only | Print | Product List | Glossary On
Versions: 1 2 3 4 5 6 7 8 9 10 11 12 13 14 15 16 17 18 19 20 21
000
FTUS41 KLWX 301400 AAA
TAFBWI
TAF AMD
KBWI 301434Z 3015/3118 30012G25KT P6SM BKN050
     FM302000 30020G33KT P6SM SCT090
     FM311400 31013G23KT P6SM FEW250=

USA.gov is the U.S. government's official web portal to all federal, state and local government web resources and services.